createdAt,value
2023-03-29T00:01:59.388Z,100.00
2023-03-29T00:04:29.609Z,100.00
2023-03-29T00:07:04.181Z,100.00
2023-03-29T00:09:33.571Z,100.00
2023-03-29T00:12:03.750Z,100.00
2023-03-29T00:14:33.631Z,99.91
2023-03-29T00:17:03.756Z,98.98
2023-03-29T00:19:36.731Z,98.68
2023-03-29T00:22:06.614Z,97.20
2023-03-29T00:24:36.420Z,96.38
2023-03-29T00:27:07.255Z,96.28
2023-03-29T00:29:36.787Z,95.96
2023-03-29T00:32:07.362Z,96.45
2023-03-29T00:34:37.108Z,96.47
2023-03-29T00:37:09.106Z,96.56
2023-03-29T00:39:40.906Z,96.16
2023-03-29T00:42:16.277Z,96.66
2023-03-29T00:45:08.059Z,96.58
2023-03-29T00:47:43.641Z,96.74
2023-03-29T00:50:22.313Z,96.68
2023-03-29T00:53:04.670Z,96.58
2023-03-29T00:55:44.513Z,96.65
2023-03-29T00:58:21.246Z,96.32
2023-03-29T01:01:02.139Z,96.52
2023-03-29T01:04:00.368Z,96.55
2023-03-29T01:06:35.727Z,96.47
2023-03-29T01:09:12.601Z,96.59
2023-03-29T01:11:53.923Z,96.83
2023-03-29T01:14:35.189Z,96.66
2023-03-29T01:17:06.615Z,96.66
2023-03-29T01:19:47.751Z,96.10
2023-03-29T01:23:07.443Z,96.16
2023-03-29T01:26:09.815Z,96.40
2023-03-29T01:28:52.304Z,96.35
2023-03-29T01:31:33.473Z,96.41
2023-03-29T01:34:40.878Z,95.90
2023-03-29T01:37:41.337Z,95.97
2023-03-29T01:40:12.152Z,95.64
2023-03-29T01:43:32.641Z,95.88
2023-03-29T01:46:24.273Z,95.75
2023-03-29T01:49:04.028Z,95.52
2023-03-29T01:51:48.389Z,95.78
2023-03-29T01:54:40.958Z,95.53
2023-03-29T01:57:14.392Z,95.35
2023-03-29T01:59:47.500Z,95.27
2023-03-29T02:02:21.605Z,95.26
2023-03-29T02:04:56.071Z,95.54
2023-03-29T02:07:31.154Z,95.74
2023-03-29T02:10:02.124Z,95.67
2023-03-29T02:12:32.993Z,95.72
2023-03-29T02:15:04.619Z,95.82
2023-03-29T02:17:31.740Z,95.97
2023-03-29T02:20:40.645Z,95.57
2023-03-29T02:23:35.103Z,95.04
2023-03-29T02:26:06.750Z,95.61
2023-03-29T02:28:37.259Z,95.38
2023-03-29T02:31:59.229Z,95.71
2023-03-29T02:34:40.100Z,95.62
2023-03-29T02:37:17.885Z,95.12
2023-03-29T02:39:52.370Z,95.02
2023-03-29T02:42:24.571Z,95.16
2023-03-29T02:45:00.577Z,95.03
2023-03-29T02:47:41.703Z,95.18
2023-03-29T02:50:12.146Z,94.86
2023-03-29T02:52:53.986Z,94.65
2023-03-29T02:55:31.266Z,94.38
2023-03-29T02:58:08.478Z,94.12
2023-03-29T03:00:44.904Z,93.98
2023-03-29T03:03:15.458Z,94.02
2023-03-29T03:05:45.381Z,94.17
2023-03-29T03:08:15.419Z,94.08
2023-03-29T03:10:46.120Z,94.09
2023-03-29T03:13:15.733Z,94.44
2023-03-29T03:15:49.135Z,94.61
2023-03-29T03:18:18.886Z,95.06
2023-03-29T03:20:59.416Z,95.14
2023-03-29T03:23:29.499Z,95.51
2023-03-29T03:25:59.433Z,95.94
2023-03-29T03:28:29.236Z,96.34
2023-03-29T03:30:59.369Z,96.37
2023-03-29T03:33:29.307Z,96.44
2023-03-29T03:36:02.940Z,96.58
2023-03-29T03:38:33.621Z,96.54
2023-03-29T03:41:05.761Z,96.60
2023-03-29T03:43:36.529Z,96.66
2023-03-29T03:46:08.571Z,96.88
2023-03-29T03:48:38.344Z,96.73
2023-03-29T03:51:08.622Z,96.71
2023-03-29T03:53:39.738Z,97.04
2023-03-29T03:56:09.645Z,97.33
2023-03-29T03:58:39.688Z,97.46
2023-03-29T04:01:09.975Z,97.58
2023-03-29T04:03:39.856Z,98.09
2023-03-29T04:06:09.787Z,97.79
2023-03-29T04:08:40.508Z,98.31
2023-03-29T04:11:08.099Z,98.17
2023-03-29T04:13:37.145Z,98.09
2023-03-29T04:16:07.231Z,98.28
2023-03-29T04:18:36.331Z,97.99
2023-03-29T04:21:05.349Z,97.90
2023-03-29T04:23:33.166Z,98.44
2023-03-29T04:26:01.734Z,98.27
2023-03-29T04:28:30.312Z,98.09
2023-03-29T04:30:58.407Z,97.90
2023-03-29T04:33:26.931Z,98.67
2023-03-29T04:35:55.252Z,98.66
2023-03-29T04:38:23.749Z,98.96
2023-03-29T04:40:52.264Z,98.90
2023-03-29T04:43:20.585Z,98.77
2023-03-29T04:45:49.156Z,98.54
2023-03-29T04:48:17.773Z,98.39
2023-03-29T04:50:47.508Z,98.88
2023-03-29T04:53:17.299Z,98.55
2023-03-29T04:55:48.410Z,98.41
2023-03-29T04:58:21.404Z,98.01
2023-03-29T05:00:55.935Z,98.01
2023-03-29T05:03:27.176Z,97.98
2023-03-29T05:06:07.402Z,97.62
2023-03-29T05:08:39.666Z,97.50
2023-03-29T05:11:11.541Z,98.36
2023-03-29T05:13:42.482Z,98.31
2023-03-29T05:16:12.711Z,98.40
2023-03-29T05:18:42.586Z,98.17
2023-03-29T05:21:12.390Z,98.01
2023-03-29T05:23:42.106Z,97.43
2023-03-29T05:26:14.658Z,97.08
2023-03-29T05:28:44.647Z,96.28
2023-03-29T05:31:16.893Z,96.19
2023-03-29T05:33:52.003Z,96.10
2023-03-29T05:36:22.008Z,95.64
2023-03-29T05:38:52.147Z,95.22
2023-03-29T05:41:23.825Z,94.89
2023-03-29T05:43:53.343Z,94.23
2023-03-29T05:46:21.860Z,93.89
2023-03-29T05:48:50.233Z,93.26
2023-03-29T05:51:24.389Z,93.02
2023-03-29T05:53:54.214Z,92.72
2023-03-29T05:56:24.310Z,92.79
2023-03-29T05:58:56.953Z,92.29
2023-03-29T06:01:26.714Z,91.98
2023-03-29T06:03:57.402Z,91.11
2023-03-29T06:06:26.948Z,90.87
2023-03-29T06:08:56.664Z,91.33
2023-03-29T06:11:26.489Z,90.72
2023-03-29T06:13:56.223Z,91.13
2023-03-29T06:16:26.235Z,90.50
2023-03-29T06:18:56.502Z,89.53
2023-03-29T06:21:27.258Z,90.01
2023-03-29T06:23:57.165Z,88.83
2023-03-29T06:26:28.086Z,87.50
2023-03-29T06:28:58.247Z,87.30
2023-03-29T06:31:25.245Z,86.80
2023-03-29T06:33:52.791Z,87.39
2023-03-29T06:36:23.800Z,86.03
2023-03-29T06:38:52.785Z,85.62
2023-03-29T06:41:23.785Z,85.73
2023-03-29T06:43:53.631Z,84.51
2023-03-29T06:46:23.817Z,85.05
2023-03-29T06:48:53.585Z,84.09
2023-03-29T06:51:23.586Z,82.17
2023-03-29T06:53:53.418Z,83.20
2023-03-29T06:56:23.863Z,82.13
2023-03-29T06:58:53.634Z,81.16
2023-03-29T07:01:24.424Z,81.26
2023-03-29T07:03:54.420Z,81.25
2023-03-29T07:06:23.839Z,80.27
2023-03-29T07:08:53.607Z,80.36
2023-03-29T07:11:23.357Z,79.51
2023-03-29T07:13:53.118Z,80.10
2023-03-29T07:16:23.139Z,79.84
2023-03-29T07:18:53.514Z,78.55
2023-03-29T07:21:23.292Z,78.71
2023-03-29T07:23:54.074Z,78.99
2023-03-29T07:26:28.594Z,79.39
2023-03-29T07:28:56.987Z,79.32
2023-03-29T07:31:24.625Z,78.31
2023-03-29T07:33:54.244Z,79.43
2023-03-29T07:36:22.373Z,79.50
2023-03-29T07:38:51.052Z,78.98
2023-03-29T07:41:19.202Z,78.96
2023-03-29T07:43:47.756Z,79.68
2023-03-29T07:46:17.094Z,79.23
2023-03-29T07:48:44.433Z,78.48
2023-03-29T07:51:13.012Z,78.79
2023-03-29T07:53:41.333Z,78.05
2023-03-29T07:56:09.845Z,77.64
2023-03-29T07:58:38.149Z,77.30
2023-03-29T08:01:08.404Z,77.50
2023-03-29T08:03:38.563Z,78.11
2023-03-29T08:06:07.404Z,78.52
2023-03-29T08:08:35.034Z,77.06
2023-03-29T08:11:03.772Z,75.85
2023-03-29T08:13:32.246Z,75.72
2023-03-29T08:16:00.229Z,74.64
2023-03-29T08:18:28.650Z,75.07
2023-03-29T08:20:57.080Z,74.23
2023-03-29T08:23:25.819Z,72.87
2023-03-29T08:25:54.406Z,71.82
2023-03-29T08:28:22.348Z,71.75
2023-03-29T08:30:51.043Z,71.89
2023-03-29T08:33:19.407Z,71.72
2023-03-29T08:35:48.369Z,71.21
2023-03-29T08:38:16.319Z,70.13
2023-03-29T08:40:49.565Z,69.90
2023-03-29T08:43:48.400Z,68.50
2023-03-29T08:46:36.435Z,68.39
2023-03-29T08:49:09.370Z,68.93
2023-03-29T08:51:49.690Z,69.14
2023-03-29T08:54:27.022Z,69.67
2023-03-29T08:57:12.032Z,70.31
2023-03-29T08:59:44.316Z,68.84
2023-03-29T09:02:33.616Z,67.93
2023-03-29T09:05:27.078Z,68.20
2023-03-29T09:07:54.655Z,67.56
2023-03-29T09:10:42.501Z,65.90
2023-03-29T09:14:06.853Z,66.67
2023-03-29T09:16:43.521Z,65.43
2023-03-29T09:19:31.962Z,66.45
2023-03-29T09:22:29.764Z,66.33
2023-03-29T09:25:14.738Z,66.96
2023-03-29T09:28:06.039Z,66.01
2023-03-29T09:30:42.746Z,62.74
2023-03-29T09:33:28.338Z,63.61
2023-03-29T09:36:34.178Z,64.39
2023-03-29T09:39:05.699Z,62.46
2023-03-29T09:41:50.626Z,62.03
2023-03-29T09:44:37.707Z,63.50
2023-03-29T09:47:31.924Z,63.13
2023-03-29T09:50:27.337Z,63.33
2023-03-29T09:53:01.379Z,62.68
2023-03-29T09:55:34.103Z,64.07
2023-03-29T09:58:27.654Z,63.36
2023-03-29T10:01:01.806Z,62.89
2023-03-29T10:03:34.879Z,61.69
2023-03-29T10:06:11.095Z,61.57
2023-03-29T10:08:47.678Z,62.51
2023-03-29T10:11:23.341Z,62.92
2023-03-29T10:13:55.056Z,61.99
2023-03-29T10:16:33.552Z,61.38
2023-03-29T10:19:28.463Z,60.15
2023-03-29T10:22:05.377Z,61.29
2023-03-29T10:24:32.642Z,60.91
2023-03-29T10:27:06.854Z,60.37
2023-03-29T10:29:41.193Z,59.85
2023-03-29T10:32:36.069Z,59.67
2023-03-29T10:35:33.372Z,61.78
2023-03-29T10:38:09.986Z,63.08
2023-03-29T10:40:48.064Z,64.08
2023-03-29T10:43:17.701Z,62.57
2023-03-29T10:45:56.835Z,62.95
2023-03-29T10:48:31.859Z,60.90
2023-03-29T10:51:05.595Z,63.35
2023-03-29T10:53:37.860Z,63.26
2023-03-29T10:56:43.305Z,61.42
2023-03-29T10:59:42.544Z,63.29
2023-03-29T11:02:15.203Z,63.18
2023-03-29T11:05:15.784Z,63.22
2023-03-29T11:08:01.595Z,64.79
2023-03-29T11:11:06.177Z,64.84
2023-03-29T11:14:01.561Z,63.74
2023-03-29T11:17:09.265Z,63.74
2023-03-29T11:20:19.133Z,63.45
2023-03-29T11:23:08.028Z,62.22
2023-03-29T11:25:49.216Z,64.20
2023-03-29T11:28:45.583Z,63.86
2023-03-29T11:31:41.596Z,63.20
2023-03-29T11:34:41.165Z,62.75
2023-03-29T11:37:19.497Z,62.31
2023-03-29T11:40:26.666Z,62.56
2023-03-29T11:43:02.314Z,62.75
2023-03-29T11:46:00.934Z,63.16
2023-03-29T11:48:47.575Z,62.57
2023-03-29T11:51:32.224Z,62.84
2023-03-29T11:54:28.786Z,64.32
2023-03-29T11:57:13.367Z,62.36
2023-03-29T12:00:21.272Z,61.10
2023-03-29T12:03:07.536Z,61.33
2023-03-29T12:05:59.075Z,60.50
2023-03-29T12:08:49.742Z,61.85
2023-03-29T12:11:31.187Z,61.33
2023-03-29T12:14:07.203Z,61.27
2023-03-29T12:16:48.984Z,60.85
2023-03-29T12:19:41.011Z,60.69
2023-03-29T12:22:12.576Z,61.80
2023-03-29T12:24:47.058Z,61.32
2023-03-29T12:27:48.187Z,61.33
2023-03-29T12:30:50.191Z,61.33
2023-03-29T12:33:43.534Z,62.80
2023-03-29T12:36:57.321Z,62.63
2023-03-29T12:39:30.586Z,61.99
2023-03-29T12:42:27.117Z,61.85
2023-03-29T12:45:01.729Z,61.42
2023-03-29T12:47:43.146Z,60.38
2023-03-29T12:50:36.916Z,60.26
2023-03-29T12:53:26.151Z,59.78
2023-03-29T12:56:11.664Z,59.92
2023-03-29T12:58:50.285Z,60.60
2023-03-29T13:01:29.559Z,60.53
2023-03-29T13:04:18.435Z,59.62
2023-03-29T13:07:03.752Z,60.46
2023-03-29T13:09:48.562Z,59.90
2023-03-29T13:12:34.708Z,59.71
2023-03-29T13:15:14.351Z,60.64
2023-03-29T13:18:55.535Z,60.18
2023-03-29T13:21:53.860Z,61.05
2023-03-29T13:24:42.341Z,60.63
2023-03-29T13:27:34.234Z,62.39
2023-03-29T13:30:43.746Z,62.60
2023-03-29T13:33:57.235Z,62.58
2023-03-29T13:36:44.838Z,61.91
2023-03-29T13:39:22.545Z,61.90
2023-03-29T13:42:09.296Z,62.07
2023-03-29T13:44:44.819Z,62.03
2023-03-29T13:47:33.213Z,61.21
2023-03-29T13:50:18.866Z,62.29
2023-03-29T13:53:01.242Z,62.02
2023-03-29T13:55:44.360Z,62.05
2023-03-29T13:58:32.416Z,62.18
2023-03-29T14:01:19.415Z,61.48
2023-03-29T14:03:52.293Z,61.21
2023-03-29T14:06:31.974Z,62.72
2023-03-29T14:09:08.645Z,61.69
2023-03-29T14:11:38.618Z,61.85
2023-03-29T14:14:11.381Z,61.17
2023-03-29T14:16:42.238Z,62.76
2023-03-29T14:19:38.906Z,62.14
2023-03-29T14:22:17.688Z,63.28
2023-03-29T14:24:56.742Z,64.29
2023-03-29T14:27:31.937Z,63.61
2023-03-29T14:30:01.990Z,64.69
2023-03-29T14:32:32.412Z,64.15
2023-03-29T14:35:00.587Z,65.04
2023-03-29T14:37:31.054Z,64.58
2023-03-29T14:40:01.458Z,64.61
2023-03-29T14:42:31.173Z,65.14
2023-03-29T14:45:09.209Z,65.30
2023-03-29T14:47:36.876Z,66.35
2023-03-29T14:50:04.991Z,65.55
2023-03-29T14:52:35.210Z,66.04
2023-03-29T14:55:06.156Z,66.47
2023-03-29T14:57:37.872Z,66.17
2023-03-29T15:00:30.686Z,66.48
2023-03-29T15:03:02.774Z,66.59
2023-03-29T15:05:37.678Z,66.98
2023-03-29T15:08:14.789Z,67.25
2023-03-29T15:10:45.214Z,67.53
2023-03-29T15:13:24.450Z,67.65
2023-03-29T15:16:01.669Z,67.44
2023-03-29T15:18:41.407Z,67.56
2023-03-29T15:23:57.350Z,67.85
2023-03-29T15:26:38.219Z,67.91
2023-03-29T15:29:17.656Z,68.79
2023-03-29T15:31:56.758Z,68.05
2023-03-29T15:34:31.325Z,68.09
2023-03-29T15:37:02.481Z,68.53
2023-03-29T15:39:32.513Z,68.35
2023-03-29T15:42:02.361Z,67.57
2023-03-29T15:44:33.939Z,68.34
2023-03-29T15:47:09.278Z,67.81
2023-03-29T15:49:39.199Z,67.79
2023-03-29T15:52:07.022Z,67.99
2023-03-29T15:54:37.120Z,68.75
2023-03-29T15:57:13.504Z,68.61
2023-03-29T15:59:44.496Z,69.07
2023-03-29T16:02:16.676Z,69.41
2023-03-29T16:04:46.625Z,69.99
2023-03-29T16:07:19.037Z,69.78
2023-03-29T16:09:48.965Z,70.01
2023-03-29T16:12:18.916Z,69.56
2023-03-29T16:14:48.740Z,69.85
2023-03-29T16:17:18.638Z,70.23
2023-03-29T16:19:48.506Z,70.23
2023-03-29T16:22:18.425Z,70.64
2023-03-29T16:24:48.332Z,70.70
2023-03-29T16:27:18.826Z,70.78
2023-03-29T16:29:48.584Z,71.15
2023-03-29T16:32:18.372Z,71.55
2023-03-29T16:34:48.610Z,71.77
2023-03-29T16:37:18.412Z,71.66
2023-03-29T16:39:48.450Z,72.26
2023-03-29T16:42:18.151Z,72.48
2023-03-29T16:44:46.863Z,72.68
2023-03-29T16:47:14.401Z,72.74
2023-03-29T16:49:45.835Z,73.04
2023-03-29T16:52:16.141Z,73.64
2023-03-29T16:54:46.876Z,73.36
2023-03-29T16:57:16.684Z,73.75
2023-03-29T16:59:47.687Z,73.80
2023-03-29T17:02:17.796Z,74.30
2023-03-29T17:04:47.723Z,74.44
2023-03-29T17:07:17.611Z,74.95
2023-03-29T17:09:48.416Z,74.44
2023-03-29T17:12:19.200Z,74.57
2023-03-29T17:14:49.742Z,74.70
2023-03-29T17:17:17.547Z,75.03
2023-03-29T17:19:44.559Z,75.22
2023-03-29T17:22:11.936Z,75.66
2023-03-29T17:24:40.510Z,75.62
2023-03-29T17:27:08.853Z,76.03
2023-03-29T17:29:37.343Z,76.23
2023-03-29T17:32:06.032Z,75.84
2023-03-29T17:34:34.247Z,76.45
2023-03-29T17:37:03.816Z,76.78
2023-03-29T17:39:32.151Z,76.80
2023-03-29T17:41:59.656Z,76.77
2023-03-29T17:44:27.888Z,77.80
2023-03-29T17:46:56.554Z,77.85
2023-03-29T17:49:24.680Z,77.75
2023-03-29T17:51:53.227Z,77.98
2023-03-29T17:54:21.809Z,78.15
2023-03-29T17:56:50.604Z,78.28
2023-03-29T17:59:18.618Z,78.45
2023-03-29T18:01:46.930Z,78.97
2023-03-29T18:04:15.364Z,78.95
2023-03-29T18:06:44.064Z,79.36
2023-03-29T18:09:13.425Z,79.21
2023-03-29T18:11:40.889Z,79.03
2023-03-29T18:14:08.967Z,79.31
2023-03-29T18:16:37.497Z,79.62
2023-03-29T18:19:06.367Z,79.87
2023-03-29T18:21:34.466Z,80.13
2023-03-29T18:24:03.252Z,80.40
2023-03-29T18:26:32.940Z,80.39
2023-03-29T18:29:02.900Z,80.50
2023-03-29T18:31:31.000Z,80.79
2023-03-29T18:33:59.558Z,81.17
2023-03-29T18:36:29.150Z,81.32
2023-03-29T18:39:02.389Z,81.50
2023-03-29T18:41:34.835Z,81.95
2023-03-29T18:44:07.523Z,81.77
2023-03-29T18:46:37.405Z,81.30
2023-03-29T18:49:07.774Z,81.75
2023-03-29T18:51:37.591Z,82.25
2023-03-29T18:54:06.076Z,82.64
2023-03-29T18:56:33.409Z,82.93
2023-03-29T18:59:06.897Z,83.47
2023-03-29T19:01:35.938Z,83.70
2023-03-29T19:04:06.241Z,84.16
2023-03-29T19:06:35.929Z,83.85
2023-03-29T19:09:05.855Z,83.89
2023-03-29T19:11:36.197Z,84.48
2023-03-29T19:14:08.891Z,84.54
2023-03-29T19:16:39.305Z,84.28
2023-03-29T19:19:08.295Z,84.22
2023-03-29T19:21:38.577Z,84.40
2023-03-29T19:24:08.558Z,84.42
2023-03-29T19:26:38.407Z,84.63
2023-03-29T19:29:08.535Z,84.66
2023-03-29T19:31:38.506Z,84.51
2023-03-29T19:34:11.465Z,84.39
2023-03-29T19:36:40.105Z,84.62
2023-03-29T19:39:09.938Z,84.96
2023-03-29T19:41:41.889Z,84.95
2023-03-29T19:44:10.211Z,85.23
2023-03-29T19:46:40.787Z,85.47
2023-03-29T19:49:13.470Z,85.80
2023-03-29T19:51:43.135Z,86.06
2023-03-29T19:54:13.810Z,86.99
2023-03-29T19:56:44.005Z,87.01
2023-03-29T19:59:17.597Z,86.60
2023-03-29T20:01:51.172Z,86.65
2023-03-29T20:04:25.412Z,86.67
2023-03-29T20:06:57.689Z,86.77
2023-03-29T20:09:27.516Z,86.82
2023-03-29T20:11:57.335Z,86.79
2023-03-29T20:14:27.278Z,86.88
2023-03-29T20:16:57.147Z,86.85
2023-03-29T20:19:26.949Z,86.69
2023-03-29T20:21:57.728Z,86.68
2023-03-29T20:24:27.576Z,86.51
2023-03-29T20:26:57.523Z,86.71
2023-03-29T20:29:27.621Z,86.54
2023-03-29T20:31:58.966Z,86.53
2023-03-29T20:34:28.982Z,86.74
2023-03-29T20:37:00.897Z,86.96
2023-03-29T20:39:31.462Z,87.01
2023-03-29T20:42:01.305Z,86.99
2023-03-29T20:44:32.408Z,87.32
2023-03-29T20:47:05.214Z,87.38
2023-03-29T20:49:39.662Z,87.20
2023-03-29T20:52:16.731Z,87.31
2023-03-29T20:54:48.570Z,87.54
2023-03-29T20:57:21.126Z,87.85
2023-03-29T20:59:50.427Z,88.08
2023-03-29T21:02:22.781Z,88.14
2023-03-29T21:04:54.093Z,88.08
2023-03-29T21:07:23.947Z,88.60
2023-03-29T21:09:54.073Z,89.02
2023-03-29T21:12:23.879Z,89.30
2023-03-29T21:14:54.081Z,89.39
2023-03-29T21:17:24.031Z,89.68
2023-03-29T21:19:54.899Z,89.85
2023-03-29T21:22:25.311Z,89.68
2023-03-29T21:24:55.076Z,90.03
2023-03-29T21:27:25.028Z,89.66
2023-03-29T21:29:54.811Z,89.90
2023-03-29T21:32:24.654Z,89.80
2023-03-29T21:34:54.517Z,89.98
2023-03-29T21:37:25.572Z,89.86
2023-03-29T21:39:55.315Z,90.06
2023-03-29T21:42:25.597Z,90.15
2023-03-29T21:44:55.642Z,90.33
2023-03-29T21:47:25.563Z,90.39
2023-03-29T21:49:55.448Z,91.23
2023-03-29T21:52:25.473Z,91.29
2023-03-29T21:54:55.392Z,91.18
2023-03-29T21:57:25.273Z,91.32
2023-03-29T21:59:55.913Z,91.53
2023-03-29T22:02:26.208Z,91.41
2023-03-29T22:04:56.715Z,91.63
2023-03-29T22:07:26.558Z,91.50
2023-03-29T22:09:58.658Z,91.77
2023-03-29T22:12:28.411Z,91.93
2023-03-29T22:14:58.197Z,91.93
2023-03-29T22:17:28.509Z,92.47
2023-03-29T22:19:58.452Z,92.28
2023-03-29T22:22:28.931Z,92.38
2023-03-29T22:24:58.687Z,92.55
2023-03-29T22:27:28.475Z,92.44
2023-03-29T22:29:58.731Z,92.60
2023-03-29T22:32:32.849Z,92.62
2023-03-29T22:35:03.352Z,92.90
2023-03-29T22:37:33.372Z,93.58
2023-03-29T22:40:01.691Z,93.82
2023-03-29T22:42:29.872Z,93.58
2023-03-29T22:44:58.458Z,93.82
2023-03-29T22:47:26.809Z,93.77
2023-03-29T22:49:55.379Z,93.90
2023-03-29T22:52:23.621Z,93.91
2023-03-29T22:54:52.069Z,94.03
2023-03-29T22:57:20.542Z,94.58
2023-03-29T22:59:48.865Z,94.84
2023-03-29T23:02:17.329Z,94.86
2023-03-29T23:04:46.340Z,94.93
2023-03-29T23:07:14.259Z,95.04
2023-03-29T23:09:42.560Z,95.32
2023-03-29T23:12:14.316Z,95.48
2023-03-29T23:14:42.897Z,95.89
2023-03-29T23:17:11.094Z,96.21
2023-03-29T23:19:39.172Z,96.37
2023-03-29T23:22:08.612Z,96.86
2023-03-29T23:24:36.026Z,96.78
2023-03-29T23:27:05.559Z,97.00
2023-03-29T23:29:34.500Z,97.27
2023-03-29T23:32:01.226Z,97.44
2023-03-29T23:34:30.129Z,97.45
2023-03-29T23:36:58.109Z,97.70
2023-03-29T23:39:26.510Z,97.94
2023-03-29T23:41:54.968Z,98.29
2023-03-29T23:44:23.420Z,98.28
2023-03-29T23:46:51.911Z,98.33
2023-03-29T23:49:22.783Z,98.43
2023-03-29T23:51:52.465Z,98.42
2023-03-29T23:54:22.508Z,98.38
2023-03-29T23:56:52.446Z,98.60
2023-03-29T23:59:26.827Z,98.60
